Time;durP1;ratioP1;P1;durP2;ratioP2;P2;SDS_P1;SDS_P2;PMS_P1;PMS_P2;Temp;Humidity;BMP_temperature;BMP_pressure;BME280_temperature;BME280_humidity;BME280_pressure;Samples;Min_cycle;Max_cycle;Signal;HPM_P1;HPM_P2
2021/11/25 00:01:15;;;;;;;5.22;3.65;;;7.50;99.90;;;;;;4165608;28;20029;-61
2021/11/25 00:03:16;;;;;;;4.53;3.60;;;7.50;99.90;;;;;;4165900;28;20061;-61
2021/11/25 00:05:16;;;;;;;4.45;3.60;;;7.50;99.90;;;;;;4165563;28;20033;-61
2021/11/25 00:07:17;;;;;;;8.23;4.07;;;7.50;99.90;;;;;;4165826;28;20044;-61
2021/11/25 00:09:18;;;;;;;6.53;4.07;;;7.50;99.90;;;;;;4165769;28;20494;-61
2021/11/25 00:11:19;;;;;;;5.10;3.63;;;7.50;99.90;;;;;;4165210;28;20025;-61
2021/11/25 00:13:19;;;;;;;7.65;4.78;;;7.50;99.90;;;;;;4166002;28;20430;-61
2021/11/25 00:15:20;;;;;;;6.45;3.80;;;7.40;99.90;;;;;;4165375;28;20460;-61
2021/11/25 00:17:21;;;;;;;6.55;4.15;;;7.40;99.90;;;;;;4165512;28;20040;-61
2021/11/25 00:19:21;;;;;;;5.50;4.05;;;7.40;99.90;;;;;;4165529;28;20044;-61
2021/11/25 00:21:22;;;;;;;5.88;4.20;;;7.40;99.90;;;;;;4164971;28;20044;-61
2021/11/25 00:23:23;;;;;;;5.80;3.28;;;7.40;99.90;;;;;;4165459;28;20053;-61
2021/11/25 00:25:23;;;;;;;9.15;4.25;;;7.30;99.90;;;;;;4168255;28;20068;-61
2021/11/25 00:27:24;;;;;;;6.35;3.90;;;7.30;99.90;;;;;;4182875;28;20037;-61
2021/11/25 00:29:25;;;;;;;5.72;3.92;;;7.30;99.90;;;;;;4182909;28;20053;-61
2021/11/25 00:31:25;;;;;;;5.57;3.90;;;7.30;99.90;;;;;;4182581;28;20426;-61
2021/11/25 00:33:27;;;;;;;5.55;3.97;;;7.20;99.90;;;;;;4182487;28;20383;-61
2021/11/25 00:35:28;;;;;;;5.75;3.80;;;7.30;99.90;;;;;;4182493;28;20064;-61
2021/11/25 00:37:29;;;;;;;6.32;4.25;;;7.20;99.90;;;;;;4182413;28;20029;-61
2021/11/25 00:39:29;;;;;;;6.32;4.10;;;7.20;99.90;;;;;;4182934;28;20486;-61
2021/11/25 00:41:30;;;;;;;6.07;4.07;;;7.20;99.90;;;;;;4182011;28;20079;-61
2021/11/25 00:43:31;;;;;;;6.57;4.20;;;7.20;99.90;;;;;;4182609;28;20439;-61
2021/11/25 00:45:31;;;;;;;8.65;4.60;;;7.10;99.90;;;;;;4182285;28;20033;-61
2021/11/25 00:47:32;;;;;;;7.38;4.45;;;7.10;99.90;;;;;;4182649;28;20033;-61
2021/11/25 00:49:32;;;;;;;6.57;4.50;;;7.00;99.90;;;;;;4182460;28;20048;-61
2021/11/25 00:51:33;;;;;;;8.88;4.90;;;7.00;99.90;;;;;;4182045;28;20050;-61
2021/11/25 00:53:34;;;;;;;7.13;4.38;;;6.90;99.90;;;;;;4182400;28;20025;-61
2021/11/25 00:55:35;;;;;;;8.27;4.70;;;6.90;99.90;;;;;;4181911;28;20495;-61
2021/11/25 00:57:35;;;;;;;7.43;4.22;;;6.90;99.90;;;;;;4182283;28;20387;-61
2021/11/25 00:59:36;;;;;;;6.20;4.18;;;6.90;99.90;;;;;;4182327;28;20025;-61
2021/11/25 01:01:37;;;;;;;5.85;3.95;;;6.90;99.90;;;;;;4182100;28;20096;-61
2021/11/25 01:03:38;;;;;;;6.43;4.45;;;6.90;99.90;;;;;;4182114;28;20040;-61
2021/11/25 01:05:39;;;;;;;7.72;4.22;;;6.90;99.90;;;;;;4181955;28;20065;-61
2021/11/25 01:07:40;;;;;;;9.02;5.00;;;6.90;99.90;;;;;;4182115;28;20032;-61
2021/11/25 01:09:40;;;;;;;7.72;4.65;;;6.90;99.90;;;;;;4181979;28;20463;-61
2021/11/25 01:11:42;;;;;;;7.05;4.68;;;6.80;99.90;;;;;;4181900;28;20036;-61
2021/11/25 01:13:43;;;;;;;7.22;4.72;;;6.80;99.90;;;;;;4182176;28;20028;-61
2021/11/25 01:15:44;;;;;;;8.82;4.78;;;6.80;99.90;;;;;;4181837;28;20027;-61
2021/11/25 01:17:45;;;;;;;7.47;5.13;;;6.80;99.90;;;;;;4182185;28;20082;-61
2021/11/25 01:19:46;;;;;;;6.78;4.40;;;6.80;99.90;;;;;;4182196;28;20178;-61
2021/11/25 01:21:47;;;;;;;9.07;5.25;;;6.80;99.90;;;;;;4182017;28;20440;-61
2021/11/25 01:23:48;;;;;;;8.93;5.10;;;6.80;99.90;;;;;;4182038;28;20025;-61
2021/11/25 01:25:51;;;;;;;6.18;4.75;;;6.90;99.90;;;;;;4182026;28;20036;-61
2021/11/25 01:27:51;;;;;;;7.80;5.10;;;6.90;99.90;;;;;;4181985;28;20412;-61
2021/11/25 01:29:52;;;;;;;8.45;5.00;;;6.80;99.90;;;;;;4181819;28;20033;-61
2021/11/25 01:31:53;;;;;;;10.40;5.32;;;6.90;99.90;;;;;;4181487;28;20041;-61
2021/11/25 01:33:53;;;;;;;7.18;4.90;;;6.90;99.90;;;;;;4180982;28;20044;-61
2021/11/25 01:35:55;;;;;;;7.63;5.10;;;6.90;99.90;;;;;;4181632;28;20029;-61
2021/11/25 01:37:56;;;;;;;7.45;5.28;;;6.90;99.90;;;;;;4181857;28;20060;-61
2021/11/25 01:39:57;;;;;;;7.68;5.18;;;7.00;99.90;;;;;;4181798;28;20368;-61
2021/11/25 01:41:57;;;;;;;8.48;5.90;;;7.00;99.90;;;;;;4181356;28;20199;-61
2021/11/25 01:43:58;;;;;;;8.73;5.38;;;7.00;99.90;;;;;;4181867;28;20460;-61
2021/11/25 01:45:59;;;;;;;9.13;5.70;;;6.90;99.90;;;;;;4181419;28;20112;-61
2021/11/25 01:48:01;;;;;;;8.60;5.43;;;6.90;99.90;;;;;;4181390;28;20040;-61
2021/11/25 01:50:03;;;;;;;7.47;5.40;;;6.90;99.90;;;;;;4181639;28;20507;-61
2021/11/25 01:52:04;;;;;;;9.60;5.57;;;6.90;99.90;;;;;;4181393;28;20033;-61
2021/11/25 01:54:05;;;;;;;8.98;5.30;;;6.90;99.90;;;;;;4181612;28;20064;-61
2021/11/25 01:56:07;;;;;;;8.38;5.75;;;6.90;99.90;;;;;;4181459;28;20033;-61
2021/11/25 01:58:08;;;;;;;7.88;5.40;;;6.90;99.90;;;;;;4181609;28;20086;-61
2021/11/25 02:00:34;;;;;;;10.02;6.05;;;6.90;99.90;;;;;;4181303;28;20029;-61
2021/11/25 02:02:35;;;;;;;10.40;6.22;;;6.90;99.90;;;;;;4180910;28;20037;-61
2021/11/25 02:04:36;;;;;;;10.30;6.15;;;6.80;99.90;;;;;;4181543;28;20029;-61
2021/11/25 02:06:37;;;;;;;8.38;5.95;;;6.90;99.90;;;;;;4180974;28;20086;-61
2021/11/25 02:08:41;;;;;;;9.52;6.35;;;6.90;99.90;;;;;;4181444;28;20041;-61
2021/11/25 02:10:45;;;;;;;9.98;5.88;;;6.90;99.90;;;;;;4180865;28;20039;-61
2021/11/25 02:12:46;;;;;;;9.25;6.20;;;6.80;99.90;;;;;;4181361;28;20025;-61
2021/11/25 02:14:47;;;;;;;13.27;6.32;;;6.80;99.90;;;;;;4181357;28;20061;-61
2021/11/25 02:16:50;;;;;;;8.43;6.05;;;6.80;99.90;;;;;;4181199;28;20025;-61
2021/11/25 02:18:50;;;;;;;;;;;6.80;99.90;;;;;;4181802;28;20068;-61
2021/11/25 02:20:54;;;;;;;9.10;6.28;;;6.70;99.90;;;;;;4180972;28;20279;-61
2021/11/25 02:22:55;;;;;;;10.60;6.38;;;6.60;99.90;;;;;;4181356;28;20389;-61
2021/11/25 02:24:56;;;;;;;10.10;6.68;;;6.60;99.90;;;;;;4181429;28;20029;-61
2021/11/25 02:26:56;;;;;;;10.30;6.50;;;6.50;99.90;;;;;;4180911;28;20036;-61
2021/11/25 02:28:57;;;;;;;9.32;6.13;;;6.50;99.90;;;;;;4181141;28;20049;-61
2021/11/25 02:30:58;;;;;;;9.27;5.80;;;6.40;99.90;;;;;;4180803;28;20481;-61
2021/11/25 02:32:59;;;;;;;9.52;6.07;;;6.40;99.90;;;;;;4180956;28;20029;-61
2021/11/25 02:35:01;;;;;;;10.07;6.50;;;6.40;99.90;;;;;;4181004;28;20029;-61
2021/11/25 02:37:02;;;;;;;8.23;6.00;;;6.50;99.90;;;;;;4180774;28;20561;-61
2021/11/25 02:39:03;;;;;;;7.95;5.95;;;6.50;99.90;;;;;;4180947;28;20037;-61
2021/11/25 02:41:05;;;;;;;8.15;6.38;;;6.50;99.90;;;;;;4180699;28;20475;-61
2021/11/25 02:43:11;;;;;;;8.00;5.75;;;6.50;99.90;;;;;;4181441;28;20379;-61
2021/11/25 02:45:11;;;;;;;8.27;5.72;;;6.50;99.90;;;;;;4183371;28;20388;-61
2021/11/25 02:47:12;;;;;;;9.15;5.60;;;6.60;99.90;;;;;;4184500;28;20047;-61
2021/11/25 02:49:13;;;;;;;10.02;5.93;;;6.60;99.90;;;;;;4184196;28;20503;-61
2021/11/25 02:51:19;;;;;;;10.00;6.15;;;6.60;99.90;;;;;;4183942;28;20411;-61
2021/11/25 02:53:23;;;;;;;7.88;5.30;;;6.60;99.90;;;;;;4184372;28;20025;-61
2021/11/25 02:55:24;;;;;;;9.32;5.85;;;6.60;99.90;;;;;;4184080;28;20460;-61
2021/11/25 02:57:25;;;;;;;7.80;5.68;;;6.60;99.90;;;;;;4184466;28;20074;-61
2021/11/25 02:59:25;;;;;;;7.45;5.28;;;6.60;99.90;;;;;;4184553;28;20471;-61
2021/11/25 03:01:31;;;;;;;6.63;4.82;;;6.60;99.90;;;;;;4183843;28;20118;-61
2021/11/25 03:03:31;;;;;;;7.95;5.72;;;6.60;99.90;;;;;;4184376;28;20387;-61
2021/11/25 03:05:34;;;;;;;8.93;6.18;;;6.60;99.90;;;;;;4183838;28;20057;-61
2021/11/25 03:07:34;;;;;;;8.75;6.28;;;6.60;99.90;;;;;;4184257;28;20107;-61
2021/11/25 03:09:35;;;;;;;8.20;6.05;;;6.60;99.90;;;;;;4184124;28;20053;-61
2021/11/25 03:11:36;;;;;;;7.93;5.50;;;6.60;99.90;;;;;;4183894;28;20422;-61
2021/11/25 03:13:40;;;;;;;8.35;5.63;;;6.60;99.90;;;;;;4184148;28;20379;-61
2021/11/25 03:15:42;;;;;;;9.30;6.05;;;6.60;99.90;;;;;;4184062;28;20032;-61
2021/11/25 03:17:43;;;;;;;9.32;5.90;;;6.60;99.90;;;;;;4183958;28;20492;-61
2021/11/25 03:19:44;;;;;;;8.02;5.63;;;6.60;99.90;;;;;;4183996;28;20031;-61
2021/11/25 03:21:44;;;;;;;8.07;5.68;;;6.60;99.90;;;;;;4183901;28;20056;-61
2021/11/25 03:23:47;;;;;;;6.78;4.85;;;6.60;99.90;;;;;;4183777;28;20021;-61
2021/11/25 03:25:49;;;;;;;7.10;4.88;;;6.50;99.90;;;;;;4183440;28;20086;-61
2021/11/25 03:27:51;;;;;;;8.48;5.72;;;6.50;99.90;;;;;;4183900;28;20049;-61
2021/11/25 03:29:51;;;;;;;7.85;5.50;;;6.50;99.90;;;;;;4183723;28;20032;-61
2021/11/25 03:31:52;;;;;;;8.25;5.72;;;6.50;99.90;;;;;;4183523;28;20043;-61
2021/11/25 03:33:54;;;;;;;9.10;5.68;;;6.50;99.90;;;;;;4183790;28;20033;-61
2021/11/25 03:35:56;;;;;;;9.10;5.90;;;6.40;99.90;;;;;;4183328;28;20113;-61
2021/11/25 03:37:57;;;;;;;7.28;5.90;;;6.40;99.90;;;;;;4183785;28;20352;-61
2021/11/25 03:39:58;;;;;;;10.30;6.45;;;6.40;99.90;;;;;;4183879;28;20048;-61
2021/11/25 03:41:59;;;;;;;8.25;6.00;;;6.40;99.90;;;;;;4183190;28;20395;-61
2021/11/25 03:43:59;;;;;;;9.32;6.68;;;6.30;99.90;;;;;;4183508;28;20158;-61
2021/11/25 03:46:00;;;;;;;8.40;5.80;;;6.30;99.90;;;;;;4183256;28;20033;-61
2021/11/25 03:48:00;;;;;;;9.00;5.97;;;6.30;99.90;;;;;;4183580;28;20037;-61
2021/11/25 03:50:02;;;;;;;9.15;6.45;;;6.30;99.90;;;;;;4183610;28;20029;-61
2021/11/25 03:52:03;;;;;;;8.82;6.20;;;6.30;99.90;;;;;;4183226;28;20432;-61
2021/11/25 03:54:04;;;;;;;8.75;5.95;;;6.20;99.90;;;;;;4183254;28;20057;-61
2021/11/25 03:56:05;;;;;;;8.20;6.05;;;6.20;99.90;;;;;;4182438;28;20040;-61
2021/11/25 03:58:06;;;;;;;9.35;6.57;;;6.20;99.90;;;;;;4183551;28;20514;-61
2021/11/25 04:00:10;;;;;;;8.30;5.88;;;6.20;99.90;;;;;;4183493;28;20029;-61
2021/11/25 04:02:11;;;;;;;8.25;5.78;;;6.20;99.90;;;;;;4183342;28;20036;-61
2021/11/25 04:04:11;;;;;;;8.43;5.80;;;6.20;99.90;;;;;;4183385;28;20036;-61
2021/11/25 04:06:12;;;;;;;8.10;5.68;;;6.20;99.90;;;;;;4182947;28;20029;-61
2021/11/25 04:08:13;;;;;;;6.90;5.28;;;6.20;99.90;;;;;;4183188;28;20041;-61
2021/11/25 04:10:15;;;;;;;9.07;5.95;;;6.20;99.90;;;;;;4183033;28;20108;-61
2021/11/25 04:12:15;;;;;;;8.60;5.65;;;6.10;99.90;;;;;;4183062;28;20029;-61
2021/11/25 04:14:16;;;;;;;8.93;5.78;;;6.10;99.90;;;;;;4183247;28;20029;-61
2021/11/25 04:16:16;;;;;;;7.18;5.25;;;6.00;99.90;;;;;;4182759;28;20021;-60
2021/11/25 04:18:17;;;;;;;7.20;4.90;;;6.00;99.90;;;;;;4183188;28;20142;-61
2021/11/25 04:20:18;;;;;;;6.40;4.57;;;6.00;99.90;;;;;;4182585;28;20045;-61
2021/11/25 04:22:21;;;;;;;6.80;4.88;;;5.90;99.90;;;;;;4182933;28;20029;-61
2021/11/25 04:24:22;;;;;;;9.93;5.07;;;5.90;99.90;;;;;;4183037;28;20481;-61
2021/11/25 04:26:22;;;;;;;8.38;6.05;;;5.80;99.90;;;;;;4182474;28;20040;-61
2021/11/25 04:28:23;;;;;;;8.07;5.65;;;5.80;99.90;;;;;;4183060;28;20045;-61
2021/11/25 04:30:30;;;;;;;9.30;5.97;;;5.70;99.90;;;;;;4182680;28;20037;-61
2021/11/25 04:37:11;;;;;;;7.13;5.88;;;5.60;99.90;;;;;;4182857;28;20029;-61
2021/11/25 04:39:13;;;;;;;9.35;5.65;;;5.60;99.90;;;;;;4182711;28;20048;-61
2021/11/25 04:41:13;;;;;;;8.75;5.85;;;5.60;99.90;;;;;;4182513;28;20116;-61
2021/11/25 04:43:15;;;;;;;8.27;5.85;;;5.50;99.90;;;;;;4182495;28;20052;-61
2021/11/25 04:45:16;;;;;;;9.63;6.05;;;5.50;99.90;;;;;;4182151;28;20032;-61
2021/11/25 04:47:16;;;;;;;8.73;5.90;;;5.50;99.90;;;;;;4182926;28;20040;-60
2021/11/25 04:49:17;;;;;;;9.70;6.38;;;5.50;99.90;;;;;;4182476;28;20037;-60
2021/11/25 04:51:18;;;;;;;10.15;5.93;;;5.50;99.90;;;;;;4182125;28;20044;-61
2021/11/25 04:53:19;;;;;;;10.82;6.85;;;5.50;99.90;;;;;;4182624;28;20452;-61
2021/11/25 04:55:20;;;;;;;8.15;6.28;;;5.50;99.90;;;;;;4182264;28;20056;-60
2021/11/25 04:57:21;;;;;;;8.30;6.43;;;5.50;99.90;;;;;;4182434;28;20029;-61
2021/11/25 04:59:21;;;;;;;10.48;6.35;;;5.50;99.90;;;;;;4182467;28;20072;-60
2021/11/25 05:01:22;;;;;;;10.13;6.60;;;5.40;99.90;;;;;;4181526;28;20048;-60
2021/11/25 05:03:23;;;;;;;11.30;7.07;;;5.50;99.90;;;;;;4181931;28;20073;-60
2021/11/25 05:05:23;;;;;;;8.40;5.93;;;5.40;99.90;;;;;;4181997;28;20021;-60
2021/11/25 05:07:24;;;;;;;7.18;5.78;;;5.40;99.90;;;;;;4181751;28;20059;-60
2021/11/25 05:09:24;;;;;;;7.32;5.60;;;5.40;99.90;;;;;;4181749;28;20037;-60
2021/11/25 05:11:25;;;;;;;9.27;5.32;;;5.40;99.90;;;;;;4181816;28;20079;-60
2021/11/25 05:13:26;;;;;;;7.15;5.18;;;5.40;99.90;;;;;;4182260;28;20056;-60
2021/11/25 05:15:26;;;;;;;8.48;5.90;;;5.30;99.90;;;;;;4181922;28;20033;-60
2021/11/25 05:17:27;;;;;;;7.88;5.70;;;5.30;99.90;;;;;;4182167;28;20057;-60
2021/11/25 05:19:27;;;;;;;10.65;6.20;;;5.30;99.90;;;;;;4182148;28;20033;-61
2021/11/25 05:21:28;;;;;;;8.10;5.57;;;5.30;99.90;;;;;;4181811;28;20029;-60
2021/11/25 05:23:29;;;;;;;8.70;6.25;;;5.30;99.90;;;;;;4182162;28;20079;-60
2021/11/25 05:25:30;;;;;;;8.55;6.20;;;5.30;99.90;;;;;;4181779;28;20036;-61
2021/11/25 05:27:30;;;;;;;8.57;5.65;;;5.30;99.90;;;;;;4181676;28;20029;-61
2021/11/25 05:29:31;;;;;;;8.77;6.28;;;5.20;99.90;;;;;;4181871;28;20051;-61
2021/11/25 05:31:32;;;;;;;10.75;6.68;;;5.30;99.90;;;;;;4181774;28;20037;-60
2021/11/25 05:33:33;;;;;;;9.23;6.38;;;5.20;99.90;;;;;;4182014;28;20441;-60
2021/11/25 05:35:33;;;;;;;8.88;5.95;;;5.20;99.90;;;;;;4181585;28;20021;-60
2021/11/25 05:37:35;;;;;;;8.13;6.15;;;5.20;99.90;;;;;;4181762;28;20033;-60
2021/11/25 05:39:35;;;;;;;12.68;7.45;;;5.10;99.90;;;;;;4181821;28;20033;-61
2021/11/25 05:41:40;;;;;;;9.20;6.72;;;5.10;99.90;;;;;;4181885;28;20521;-61
2021/11/25 05:43:40;;;;;;;9.68;6.38;;;5.10;99.90;;;;;;4181767;28;20025;-61
2021/11/25 05:45:41;;;;;;;9.02;6.45;;;5.10;99.90;;;;;;4181744;28;20029;-60
2021/11/25 05:47:43;;;;;;;11.23;6.93;;;5.00;99.90;;;;;;4181570;28;20204;-60
2021/11/25 05:49:44;;;;;;;9.25;6.75;;;5.10;99.90;;;;;;4181525;28;20497;-61
2021/11/25 05:51:44;;;;;;;8.70;6.32;;;5.10;99.90;;;;;;4181318;28;20029;-61
2021/11/25 05:53:45;;;;;;;9.82;6.90;;;5.10;99.90;;;;;;4181656;28;20029;-60
2021/11/25 05:55:47;;;;;;;9.13;6.70;;;5.10;99.90;;;;;;4181178;28;20498;-60
2021/11/25 05:57:48;;;;;;;11.50;7.63;;;5.00;99.90;;;;;;4181456;28;20037;-60
2021/11/25 05:59:49;;;;;;;9.88;6.95;;;5.10;99.90;;;;;;4181431;28;20057;-60
2021/11/25 06:01:49;;;;;;;8.10;6.22;;;5.00;99.90;;;;;;4181308;28;20109;-60
2021/11/25 06:03:54;;;;;;;10.70;6.53;;;5.00;99.90;;;;;;4181370;28;20041;-60
2021/11/25 06:05:54;;;;;;;9.27;6.57;;;4.90;99.90;;;;;;4180955;28;20040;-60
2021/11/25 06:07:59;;;;;;;9.38;5.85;;;4.80;99.90;;;;;;4181398;28;20029;-60
2021/11/25 06:10:00;;;;;;;8.73;5.80;;;4.80;99.90;;;;;;4181451;28;20029;-60
2021/11/25 06:12:00;;;;;;;8.52;5.85;;;4.80;99.90;;;;;;4181157;28;20075;-60
2021/11/25 06:14:01;;;;;;;7.85;5.82;;;4.70;99.90;;;;;;4181498;28;20040;-60
2021/11/25 06:16:01;;;;;;;9.82;6.20;;;4.70;99.90;;;;;;4180364;28;20053;-60
2021/11/25 06:18:02;;;;;;;11.55;6.60;;;4.70;99.90;;;;;;4181209;28;20497;-60
2021/11/25 06:20:11;;;;;;;8.25;6.25;;;4.70;99.90;;;;;;4180757;28;20119;-61
2021/11/25 06:22:11;;;;;;;8.82;6.25;;;4.80;99.90;;;;;;4180971;28;20082;-60
2021/11/25 06:24:12;;;;;;;8.63;5.82;;;4.80;99.90;;;;;;4181141;28;20538;-60
2021/11/25 06:26:12;;;;;;;9.95;6.35;;;4.70;99.90;;;;;;4180457;28;20037;-60
2021/11/25 06:28:14;;;;;;;9.88;6.15;;;4.70;99.90;;;;;;4181165;28;20049;-60
2021/11/25 06:30:16;;;;;;;7.95;5.32;;;4.70;99.90;;;;;;4180245;28;20410;-61
2021/11/25 06:32:16;;;;;;;7.45;5.50;;;4.70;99.90;;;;;;4181311;28;20484;-59
2021/11/25 06:34:18;;;;;;;8.35;5.80;;;4.60;99.90;;;;;;4181008;28;20031;-60
2021/11/25 06:36:18;;;;;;;9.55;5.82;;;4.60;99.90;;;;;;4180338;28;20155;-60
2021/11/25 06:38:19;;;;;;;8.77;6.05;;;4.60;99.90;;;;;;4181231;28;20106;-60
2021/11/25 06:40:25;;;;;;;8.25;6.13;;;4.60;99.90;;;;;;4180220;28;20021;-61
2021/11/25 06:42:26;;;;;;;11.30;5.88;;;4.60;99.90;;;;;;4179999;28;20036;-60
2021/11/25 06:44:26;;;;;;;9.57;6.43;;;4.60;99.90;;;;;;4181092;28;20068;-61
2021/11/25 06:46:27;;;;;;;10.30;7.10;;;4.60;99.90;;;;;;4180358;28;20114;-61
2021/11/25 06:48:28;;;;;;;10.48;7.30;;;4.60;99.90;;;;;;4180755;28;20077;-61
2021/11/25 06:50:29;;;;;;;12.10;7.97;;;4.60;99.90;;;;;;4180247;28;20064;-61
2021/11/25 06:52:30;;;;;;;10.40;7.82;;;4.60;99.90;;;;;;4181399;28;20037;-61
2021/11/25 06:54:30;;;;;;;13.45;7.85;;;4.60;99.90;;;;;;4181062;28;20021;-61
2021/11/25 06:56:31;;;;;;;12.20;8.77;;;4.70;99.90;;;;;;4180212;28;20154;-61
2021/11/25 06:58:32;;;;;;;12.65;8.68;;;4.70;99.90;;;;;;4181025;28;20441;-61
2021/11/25 07:00:33;;;;;;;13.30;9.20;;;4.70;99.90;;;;;;4179954;28;20033;-61
2021/11/25 07:02:33;;;;;;;13.32;9.02;;;4.70;99.90;;;;;;4180930;28;20083;-61
2021/11/25 07:04:34;;;;;;;13.65;8.85;;;4.70;99.90;;;;;;4180743;28;20130;-61
2021/11/25 07:06:34;;;;;;;12.98;8.75;;;4.70;99.90;;;;;;4180072;28;20387;-61
2021/11/25 07:08:35;;;;;;;12.48;8.23;;;4.70;99.90;;;;;;4180649;28;20037;-61
2021/11/25 07:10:36;;;;;;;11.50;8.38;;;4.80;99.90;;;;;;4180283;28;20037;-61
2021/11/25 07:12:39;;;;;;;11.18;7.65;;;4.80;99.90;;;;;;4180988;28;20033;-61
2021/11/25 07:14:39;;;;;;;11.07;7.90;;;4.80;99.90;;;;;;4181114;28;20045;-61
2021/11/25 07:16:40;;;;;;;12.30;8.00;;;4.80;99.90;;;;;;4179828;28;20499;-61
2021/11/25 07:18:41;;;;;;;12.93;8.20;;;4.80;99.90;;;;;;4180604;28;20043;-61
2021/11/25 07:20:42;;;;;;;15.18;9.32;;;4.80;99.90;;;;;;4179801;28;20036;-61
2021/11/25 07:22:43;;;;;;;13.65;9.60;;;4.80;99.90;;;;;;4180732;28;20533;-61
2021/11/25 07:24:43;;;;;;;14.40;9.27;;;4.80;99.90;;;;;;4180615;28;20483;-61
2021/11/25 07:26:44;;;;;;;14.85;9.95;;;4.80;99.90;;;;;;4180118;28;20036;-61
2021/11/25 07:28:45;;;;;;;14.73;9.25;;;4.80;99.90;;;;;;4180693;28;20049;-61
2021/11/25 07:30:46;;;;;;;14.05;8.85;;;4.90;99.90;;;;;;4179648;28;20037;-61
2021/11/25 07:32:48;;;;;;;15.73;10.57;;;4.90;99.90;;;;;;4183666;28;20119;-61
2021/11/25 07:34:48;;;;;;;13.02;9.23;;;4.90;99.90;;;;;;4183828;28;20032;-61
2021/11/25 07:36:49;;;;;;;15.23;11.07;;;4.90;99.90;;;;;;4182909;28;20392;-61
2021/11/25 07:38:50;;;;;;;16.60;10.80;;;4.90;99.90;;;;;;4183539;28;20123;-61
2021/11/25 07:40:52;;;;;;;15.90;11.30;;;5.00;99.90;;;;;;4183151;28;20033;-61
2021/11/25 07:42:53;;;;;;;18.17;12.07;;;5.00;99.90;;;;;;4183145;28;20041;-61
2021/11/25 07:44:53;;;;;;;17.98;11.93;;;5.00;99.90;;;;;;4182779;28;20032;-61
2021/11/25 07:46:54;;;;;;;18.67;12.55;;;5.00;99.90;;;;;;4181269;28;20024;-62
2021/11/25 07:48:55;;;;;;;20.30;12.57;;;5.00;99.90;;;;;;4182237;28;20041;-62
2021/11/25 07:50:56;;;;;;;21.30;13.85;;;5.00;99.90;;;;;;4181961;28;20032;-62
2021/11/25 07:52:58;;;;;;;21.27;12.50;;;5.10;99.90;;;;;;4181969;28;20051;-62
2021/11/25 07:54:58;;;;;;;22.23;14.73;;;5.10;99.90;;;;;;4182551;28;20033;-62
2021/11/25 07:57:00;;;;;;;22.73;15.00;;;5.00;99.90;;;;;;4181803;28;20171;-62
2021/11/25 07:59:01;;;;;;;21.38;13.82;;;5.00;99.90;;;;;;4183087;28;20373;-62
2021/11/25 08:01:01;;;;;;;21.90;14.35;;;5.00;99.90;;;;;;4177090;28;20036;-62
2021/11/25 08:03:02;;;;;;;24.95;15.85;;;4.80;99.90;;;;;;4166436;28;20029;-62
2021/11/25 08:05:03;;;;;;;21.85;14.18;;;4.90;99.90;;;;;;4166315;28;20025;-62
2021/11/25 08:07:04;;;;;;;22.60;14.25;;;4.80;99.90;;;;;;4165606;28;20032;-62
2021/11/25 08:09:04;;;;;;;21.33;13.73;;;4.80;99.90;;;;;;4166371;28;20103;-62
2021/11/25 08:11:05;;;;;;;19.85;13.85;;;4.80;99.90;;;;;;4165785;28;20064;-62
2021/11/25 08:13:05;;;;;;;21.25;13.73;;;4.80;99.90;;;;;;4166451;28;20468;-62
2021/11/25 08:15:06;;;;;;;22.58;13.70;;;4.70;99.90;;;;;;4165754;28;20151;-64
2021/11/25 08:17:09;;;;;;;23.38;15.23;;;4.60;99.90;;;;;;4165759;28;20030;-62
2021/11/25 08:19:10;;;;;;;30.42;17.25;;;4.60;99.90;;;;;;4166129;28;20037;-62
2021/11/25 08:21:13;;;;;;;35.10;18.70;;;4.50;99.90;;;;;;4165106;28;20033;-62
2021/11/25 08:23:14;;;;;;;28.20;18.38;;;4.50;99.90;;;;;;4166199;28;20095;-62
2021/11/25 08:25:15;;;;;;;30.27;16.42;;;4.40;99.90;;;;;;4165582;28;20030;-62
2021/11/25 08:27:16;;;;;;;24.67;15.35;;;4.40;99.90;;;;;;4166205;28;20392;-62
2021/11/25 08:29:17;;;;;;;24.42;16.42;;;4.30;99.90;;;;;;4166100;28;20053;-62
2021/11/25 08:31:17;;;;;;;27.80;17.17;;;4.30;99.90;;;;;;4166078;28;20384;-62
2021/11/25 08:33:20;;;;;;;23.20;14.55;;;4.30;99.90;;;;;;4167076;28;20033;-62
2021/11/25 08:35:21;;;;;;;;;;;4.30;99.90;;;;;;4166726;28;20033;-62
2021/11/25 08:37:21;;;;;;;22.73;13.98;;;4.30;99.90;;;;;;4166939;28;20375;-62
2021/11/25 08:39:22;;;;;;;21.52;14.38;;;4.40;99.90;;;;;;4166986;28;20029;-62
2021/11/25 08:41:25;;;;;;;22.90;13.80;;;4.40;99.90;;;;;;4166198;28;20033;-62
2021/11/25 08:43:26;;;;;;;23.70;14.60;;;4.40;99.90;;;;;;4166428;28;20033;-62
2021/11/25 08:45:27;;;;;;;24.20;14.95;;;4.40;99.90;;;;;;4165825;28;20481;-62
2021/11/25 08:47:28;;;;;;;20.83;14.27;;;4.40;99.90;;;;;;4166824;28;20038;-62
2021/11/25 08:49:29;;;;;;;21.52;14.43;;;4.50;99.90;;;;;;4166727;28;20121;-62
2021/11/25 08:51:30;;;;;;;27.67;15.80;;;4.60;99.90;;;;;;4166065;28;20025;-62
2021/11/25 08:53:31;;;;;;;21.02;14.13;;;4.60;99.90;;;;;;4166392;28;20040;-62
2021/11/25 08:55:34;;;;;;;20.50;13.85;;;4.70;99.90;;;;;;4165771;28;20060;-62
2021/11/25 08:57:39;;;;;;;21.65;13.80;;;4.70;99.90;;;;;;4166817;28;20032;-62
2021/11/25 08:59:39;;;;;;;23.02;14.82;;;4.80;99.90;;;;;;4166557;28;20041;-62
2021/11/25 09:01:40;;;;;;;21.00;13.45;;;4.80;99.90;;;;;;4165020;28;20400;-62
2021/11/25 09:03:40;;;;;;;21.58;14.15;;;4.90;99.90;;;;;;4165918;28;20079;-62
2021/11/25 09:05:42;;;;;;;20.58;13.57;;;4.90;99.90;;;;;;4164311;28;20018;-62
2021/11/25 09:07:42;;;;;;;19.75;13.23;;;5.00;99.90;;;;;;4165442;28;20140;-62
2021/11/25 09:09:43;;;;;;;19.58;14.10;;;5.00;99.90;;;;;;4165757;28;20099;-62
2021/11/25 09:11:44;;;;;;;21.80;13.82;;;5.10;99.90;;;;;;4165324;28;20029;-62
2021/11/25 09:13:45;;;;;;;23.08;15.13;;;5.10;99.90;;;;;;4165525;28;20029;-62
2021/11/25 09:15:46;;;;;;;23.70;15.65;;;5.10;99.90;;;;;;4164773;28;20034;-62
2021/11/25 09:17:47;;;;;;;25.92;16.58;;;5.20;99.90;;;;;;4165493;28;20373;-62
2021/11/25 09:19:47;;;;;;;25.65;15.90;;;5.20;99.90;;;;;;4165466;28;20096;-62
2021/11/25 09:21:48;;;;;;;23.88;15.75;;;5.20;99.90;;;;;;4164708;28;20053;-62
2021/11/25 09:23:49;;;;;;;21.55;14.20;;;5.30;99.90;;;;;;4165431;28;20483;-62
2021/11/25 09:25:51;;;;;;;22.63;14.95;;;5.30;99.90;;;;;;4164725;28;20030;-62
2021/11/25 09:27:51;;;;;;;21.80;14.80;;;5.30;99.90;;;;;;4165213;28;20131;-62
2021/11/25 09:29:52;;;;;;;28.58;16.98;;;5.30;99.90;;;;;;4165275;28;20049;-62
2021/11/25 09:31:52;;;;;;;23.77;15.05;;;5.40;99.90;;;;;;4164674;28;20033;-62
2021/11/25 09:33:54;;;;;;;23.90;16.00;;;5.40;99.90;;;;;;4165861;28;20026;-62
2021/11/25 09:35:54;;;;;;;25.38;15.10;;;5.50;99.90;;;;;;4164289;28;20025;-62
2021/11/25 09:37:55;;;;;;;26.52;16.40;;;5.50;99.90;;;;;;4164005;28;20033;-62
2021/11/25 09:39:56;;;;;;;23.80;15.23;;;5.60;99.90;;;;;;4164106;28;20026;-62
2021/11/25 09:41:57;;;;;;;24.65;15.98;;;5.50;99.90;;;;;;4164186;28;20113;-62
2021/11/25 09:43:58;;;;;;;23.15;15.27;;;5.60;99.90;;;;;;4165312;28;20365;-62
2021/11/25 09:45:59;;;;;;;27.05;17.23;;;5.60;99.90;;;;;;4164229;28;20149;-62
2021/11/25 09:48:09;;;;;;;23.33;15.60;;;5.60;99.90;;;;;;4165210;28;20472;-62
2021/11/25 09:50:09;;;;;;;24.98;16.25;;;5.60;99.90;;;;;;4162966;28;20029;-63
2021/11/25 09:52:10;;;;;;;29.00;17.67;;;5.70;99.90;;;;;;4165073;28;20498;-62
2021/11/25 09:54:11;;;;;;;25.88;17.58;;;5.70;99.90;;;;;;4164387;28;20025;-62
2021/11/25 09:56:12;;;;;;;25.63;16.95;;;5.70;99.90;;;;;;4181144;28;20036;-62
2021/11/25 09:58:14;;;;;;;25.85;17.23;;;5.70;99.90;;;;;;4187192;28;20094;-62
2021/11/25 10:00:15;;;;;;;26.48;18.17;;;5.70;99.90;;;;;;4180523;28;20047;-63
2021/11/25 10:02:16;;;;;;;29.60;19.50;;;5.60;99.90;;;;;;4181201;28;20318;-62
2021/11/25 10:04:16;;;;;;;29.50;19.05;;;5.60;99.90;;;;;;4179918;28;20075;-62
2021/11/25 10:06:18;;;;;;;30.80;19.70;;;5.60;99.90;;;;;;4177003;28;20036;-62
2021/11/25 10:08:28;;;;;;;28.73;18.58;;;5.60;99.90;;;;;;4175144;28;20399;-62
2021/11/25 10:10:34;;;;;;;30.40;19.58;;;5.60;99.90;;;;;;4178465;28;20037;-62
2021/11/25 10:12:36;;;;;;;32.72;20.42;;;5.50;99.90;;;;;;4178478;28;20098;-62
2021/11/25 10:14:38;;;;;;;29.80;19.30;;;5.50;99.90;;;;;;4177931;28;20364;-62
2021/11/25 10:16:48;;;;;;;27.38;18.58;;;5.50;99.90;;;;;;4178782;28;20025;-62
2021/11/25 10:18:48;;;;;;;29.23;18.50;;;5.50;99.90;;;;;;4180049;28;20340;-62
2021/11/25 10:20:52;;;;;;;26.75;18.13;;;5.50;99.90;;;;;;4178953;28;20033;-62
2021/11/25 10:23:02;;;;;;;30.48;19.55;;;5.60;99.90;;;;;;4179627;28;20052;-62
2021/11/25 10:25:03;;;;;;;27.35;18.00;;;5.50;99.90;;;;;;4179638;28;20040;-62
2021/11/25 10:27:27;;;;;;;28.08;18.10;;;5.50;99.90;;;;;;4178791;28;20100;-62
2021/11/25 10:29:27;;;;;;;26.83;17.80;;;5.50;99.90;;;;;;4181054;28;20072;-62
2021/11/25 10:31:31;;;;;;;26.58;18.30;;;5.50;99.90;;;;;;4180506;28;20028;-62
2021/11/25 10:40:25;;;;;;;26.92;18.10;;;5.60;99.90;;;;;;4178757;28;20162;-62
2021/11/25 10:42:33;;;;;;;32.22;18.77;;;5.60;99.90;;;;;;4179391;28;20041;-62
2021/11/25 10:44:37;;;;;;;26.45;17.98;;;5.60;99.90;;;;;;4179531;28;20537;-62
2021/11/25 10:46:44;;;;;;;25.05;16.75;;;5.60;99.90;;;;;;4178871;28;20483;-62